createdAt,value
2022-12-28T00:01:50.680Z,1.23
2022-12-28T00:04:18.576Z,1.20
2022-12-28T00:06:47.676Z,1.16
2022-12-28T00:09:15.648Z,1.13
2022-12-28T00:11:43.615Z,1.11
2022-12-28T00:14:11.496Z,1.08
2022-12-28T00:16:40.711Z,1.04
2022-12-28T00:19:16.428Z,1.03
2022-12-28T00:21:45.216Z,1.01
2022-12-28T00:24:19.134Z,0.99
2022-12-28T00:26:47.014Z,0.96
2022-12-28T00:29:15.376Z,0.95
2022-12-28T00:31:44.958Z,0.94
2022-12-28T00:34:13.152Z,0.94
2022-12-28T00:37:10.160Z,0.94
2022-12-28T00:39:30.290Z,0.94
2022-12-28T00:41:58.173Z,0.95
2022-12-28T00:44:26.048Z,0.93
2022-12-28T00:46:53.911Z,0.92
2022-12-28T00:49:21.866Z,0.89
2022-12-28T00:51:50.170Z,0.85
2022-12-28T00:54:18.109Z,0.76
2022-12-28T00:56:46.591Z,0.63
2022-12-28T00:59:15.892Z,0.59
2022-12-28T01:01:43.846Z,0.58
2022-12-28T01:04:12.043Z,0.57
2022-12-28T01:06:40.202Z,0.56
2022-12-28T01:09:08.172Z,0.56
2022-12-28T01:11:36.262Z,0.55
2022-12-28T01:14:04.229Z,0.55
2022-12-28T01:16:33.669Z,0.57
2022-12-28T01:19:02.934Z,0.60
2022-12-28T01:21:32.037Z,0.63
2022-12-28T01:24:02.062Z,0.70
2022-12-28T01:26:32.564Z,0.74
2022-12-28T01:29:00.537Z,0.80
2022-12-28T01:31:28.748Z,0.83
2022-12-28T01:33:56.785Z,0.85
2022-12-28T01:36:28.788Z,0.86
2022-12-28T01:38:57.950Z,0.87
2022-12-28T01:41:27.367Z,0.88
2022-12-28T01:43:55.334Z,0.89
2022-12-28T01:46:35.571Z,0.85
2022-12-28T01:49:04.508Z,0.77
2022-12-28T01:51:36.123Z,0.71
2022-12-28T01:54:04.785Z,0.65
2022-12-28T01:56:32.839Z,0.59
2022-12-28T01:59:00.755Z,0.52
2022-12-28T02:01:29.518Z,0.47
2022-12-28T02:03:58.119Z,0.44
2022-12-28T02:06:27.116Z,0.41
2022-12-28T02:09:06.360Z,0.37
2022-12-28T02:11:34.621Z,0.32
2022-12-28T02:14:03.207Z,0.25
2022-12-28T02:16:31.239Z,0.17
2022-12-28T02:18:59.108Z,0.10
2022-12-28T02:21:38.989Z,0.04
2022-12-28T02:24:09.930Z,-0.02
2022-12-28T02:26:44.866Z,-0.09
2022-12-28T02:29:15.697Z,-0.16
2022-12-28T02:31:48.589Z,-0.21
2022-12-28T02:34:35.394Z,-0.29
2022-12-28T02:37:10.741Z,-0.37
2022-12-28T02:39:43.222Z,-0.44
2022-12-28T02:42:11.523Z,-0.51
2022-12-28T02:44:58.317Z,-0.57
2022-12-28T02:47:44.683Z,-0.61
2022-12-28T02:50:15.070Z,-0.67
2022-12-28T02:53:03.278Z,-0.71
2022-12-28T02:55:53.171Z,-0.73
2022-12-28T02:58:39.867Z,-0.79
2022-12-28T03:01:23.444Z,-0.83
2022-12-28T03:04:04.070Z,-0.87
2022-12-28T03:06:50.984Z,-0.93
2022-12-28T03:09:34.592Z,-0.98
2022-12-28T03:12:06.271Z,-1.03
2022-12-28T03:14:45.590Z,-1.08
2022-12-28T03:17:32.954Z,-1.11
2022-12-28T03:20:23.632Z,-1.19
2022-12-28T03:23:11.887Z,-1.25
2022-12-28T03:26:01.056Z,-1.28
2022-12-28T03:28:53.901Z,-1.31
2022-12-28T03:31:24.467Z,-1.34
2022-12-28T03:34:06.949Z,-1.37
2022-12-28T03:36:43.199Z,-1.41
2022-12-28T03:39:14.145Z,-1.46
2022-12-28T03:41:47.843Z,-1.49
2022-12-28T03:44:33.069Z,-1.51
2022-12-28T03:47:07.136Z,-1.55
2022-12-28T03:49:36.230Z,-1.58
2022-12-28T03:52:05.429Z,-1.59
2022-12-28T03:54:33.499Z,-1.60
2022-12-28T03:57:01.567Z,-1.63
2022-12-28T03:59:32.314Z,-1.66
2022-12-28T04:02:01.294Z,-1.68
2022-12-28T04:04:30.093Z,-1.72
2022-12-28T04:06:58.009Z,-1.75
2022-12-28T04:09:26.132Z,-1.76
2022-12-28T04:11:54.296Z,-1.77
2022-12-28T04:14:27.930Z,-1.79
2022-12-28T04:16:55.989Z,-1.83
2022-12-28T04:19:23.996Z,-1.85
2022-12-28T04:21:52.574Z,-1.86
2022-12-28T04:24:21.314Z,-1.87
2022-12-28T04:26:49.292Z,-1.90
2022-12-28T04:29:17.363Z,-1.91
2022-12-28T04:31:49.632Z,-1.91
2022-12-28T04:34:20.057Z,-1.91
2022-12-28T04:37:00.516Z,-1.90
2022-12-28T04:39:28.568Z,-1.92
2022-12-28T04:42:16.359Z,-1.97
2022-12-28T04:44:44.608Z,-1.98
2022-12-28T04:47:13.464Z,-2.00
2022-12-28T04:49:41.364Z,-2.02
2022-12-28T04:52:09.221Z,-2.04
2022-12-28T04:54:36.986Z,-2.06
2022-12-28T04:57:04.858Z,-2.07
2022-12-28T04:59:32.730Z,-2.08
2022-12-28T05:02:00.762Z,-2.11
2022-12-28T05:04:28.876Z,-2.13
2022-12-28T05:06:56.936Z,-2.14
2022-12-28T05:09:24.804Z,-2.14
2022-12-28T05:11:52.873Z,-2.16
2022-12-28T05:14:20.747Z,-2.19
2022-12-28T05:16:50.363Z,-2.19
2022-12-28T05:19:18.263Z,-2.20
2022-12-28T05:21:46.191Z,-2.22
2022-12-28T05:24:14.165Z,-2.24
2022-12-28T05:26:42.143Z,-2.25
2022-12-28T05:29:09.997Z,-2.26
2022-12-28T05:31:38.051Z,-2.28
2022-12-28T05:34:06.146Z,-2.31
2022-12-28T05:36:36.974Z,-2.34
2022-12-28T05:39:05.156Z,-2.36
2022-12-28T05:41:32.928Z,-2.36
2022-12-28T05:44:00.884Z,-2.38
2022-12-28T05:46:30.232Z,-2.39
2022-12-28T05:48:58.581Z,-2.40
2022-12-28T05:51:30.849Z,-2.41
2022-12-28T05:53:59.978Z,-2.43
2022-12-28T05:56:28.721Z,-2.44
2022-12-28T05:58:58.448Z,-2.42
2022-12-28T06:01:28.930Z,-2.42
2022-12-28T06:04:07.572Z,-2.41
2022-12-28T06:06:36.400Z,-2.40
2022-12-28T06:09:04.855Z,-2.40
2022-12-28T06:11:32.732Z,-2.40
2022-12-28T06:14:01.227Z,-2.41
2022-12-28T06:16:30.655Z,-2.43
2022-12-28T06:18:59.030Z,-2.44
2022-12-28T06:21:28.682Z,-2.42
2022-12-28T06:23:59.964Z,-2.40
2022-12-28T06:26:29.148Z,-2.36
2022-12-28T06:28:57.830Z,-2.27
2022-12-28T06:31:27.620Z,-2.16
2022-12-28T06:33:57.408Z,-2.05
2022-12-28T06:36:27.270Z,-1.91
2022-12-28T06:38:56.464Z,-1.79
2022-12-28T06:41:24.945Z,-1.66
2022-12-28T06:43:53.828Z,-1.54
2022-12-28T06:46:22.664Z,-1.34
2022-12-28T06:48:51.204Z,-1.14
2022-12-28T06:51:23.469Z,-0.96
2022-12-28T06:53:52.577Z,-0.82
2022-12-28T06:56:24.116Z,-0.61
2022-12-28T06:58:56.886Z,-0.20
2022-12-28T07:01:30.053Z,0.29
2022-12-28T07:03:58.575Z,0.77
2022-12-28T07:06:27.678Z,1.29
2022-12-28T07:09:02.549Z,1.84
2022-12-28T07:11:30.581Z,2.31
2022-12-28T07:13:58.508Z,2.78
2022-12-28T07:18:56.440Z,3.60
2022-12-28T07:21:26.446Z,3.92
2022-12-28T07:23:55.332Z,4.21
2022-12-28T07:26:24.531Z,4.52
2022-12-28T07:28:53.805Z,4.89
2022-12-28T07:31:26.212Z,5.28
2022-12-28T07:33:55.758Z,5.58
2022-12-28T07:36:24.805Z,5.87
2022-12-28T07:38:53.099Z,6.25
2022-12-28T07:41:23.277Z,6.51
2022-12-28T07:43:51.093Z,6.76
2022-12-28T07:46:23.567Z,7.01
2022-12-28T07:48:52.130Z,7.42
2022-12-28T07:51:30.459Z,7.74
2022-12-28T07:53:59.031Z,8.00
2022-12-28T07:56:28.642Z,8.28
2022-12-28T07:58:57.775Z,8.52
2022-12-28T08:01:27.660Z,8.87
2022-12-28T08:03:58.130Z,9.10
2022-12-28T08:06:26.973Z,9.34
2022-12-28T08:08:56.264Z,9.72
2022-12-28T08:11:25.794Z,10.13
2022-12-28T08:13:54.761Z,10.52
2022-12-28T08:16:24.659Z,10.94
2022-12-28T08:18:53.258Z,11.08
2022-12-28T08:21:24.425Z,11.22
2022-12-28T08:23:52.785Z,11.36
2022-12-28T08:26:22.815Z,11.50
2022-12-28T08:28:51.967Z,11.77
2022-12-28T08:31:21.960Z,12.07
2022-12-28T08:33:50.410Z,12.34
2022-12-28T08:36:18.298Z,12.65
2022-12-28T08:38:47.256Z,12.99
2022-12-28T08:41:17.210Z,13.38
2022-12-28T08:43:45.566Z,13.71
2022-12-28T08:46:16.577Z,14.03
2022-12-28T08:48:45.390Z,14.24
2022-12-28T08:51:14.886Z,14.39
2022-12-28T08:53:43.286Z,14.60
2022-12-28T08:56:18.922Z,14.97
2022-12-28T08:58:47.715Z,15.40
2022-12-28T09:01:19.979Z,15.68
2022-12-28T09:03:48.762Z,15.99
2022-12-28T09:06:18.063Z,16.32
2022-12-28T09:09:04.828Z,16.64
2022-12-28T09:11:37.470Z,16.89
2022-12-28T09:14:07.266Z,17.13
2022-12-28T09:16:35.696Z,17.38
2022-12-28T09:19:05.270Z,17.69
2022-12-28T09:21:37.477Z,18.00
2022-12-28T09:24:05.902Z,18.29
2022-12-28T09:26:37.904Z,18.40
2022-12-28T09:29:09.002Z,18.56
2022-12-28T09:31:37.464Z,18.83
2022-12-28T09:36:54.331Z,19.21
2022-12-28T09:39:25.047Z,19.57
2022-12-28T09:41:55.960Z,19.74
2022-12-28T09:44:36.963Z,19.83
2022-12-28T09:47:14.267Z,19.95
2022-12-28T09:49:45.806Z,19.98
2022-12-28T09:52:22.995Z,20.15
2022-12-28T09:54:50.848Z,20.03
2022-12-28T09:57:19.964Z,20.18
2022-12-28T09:59:49.486Z,20.25
2022-12-28T10:02:21.350Z,20.47
2022-12-28T10:04:50.323Z,20.78
2022-12-28T10:07:18.561Z,20.79
2022-12-28T10:09:47.175Z,20.82
2022-12-28T10:12:20.175Z,21.02
2022-12-28T10:14:48.671Z,21.36
2022-12-28T10:17:17.842Z,21.86
2022-12-28T10:19:46.777Z,22.13
2022-12-28T10:22:17.211Z,22.39
2022-12-28T10:24:45.680Z,22.53
2022-12-28T10:27:23.900Z,22.74
2022-12-28T10:29:52.751Z,22.57
2022-12-28T10:32:21.124Z,22.32
2022-12-28T10:34:59.744Z,20.86
2022-12-28T10:37:30.279Z,19.83
2022-12-28T10:40:00.102Z,19.06
2022-12-28T10:42:34.926Z,17.80
2022-12-28T10:45:05.073Z,17.06
2022-12-28T10:47:36.174Z,16.71
2022-12-28T10:52:56.413Z,15.67
2022-12-28T10:55:28.965Z,15.23
2022-12-28T11:01:05.274Z,15.04
2022-12-28T11:03:22.124Z,15.05
2022-12-28T11:03:38.745Z,15.22
2022-12-28T11:06:26.776Z,15.08
2022-12-28T11:09:06.552Z,15.02
2022-12-28T11:11:34.509Z,15.32
2022-12-28T11:14:05.116Z,15.49
2022-12-28T11:16:35.562Z,15.62
2022-12-28T11:19:04.040Z,15.75
2022-12-28T11:21:33.755Z,15.78
2022-12-28T11:24:01.678Z,15.67
2022-12-28T11:26:30.201Z,15.62
2022-12-28T11:28:58.070Z,15.46
2022-12-28T11:31:35.141Z,15.48
2022-12-28T11:34:05.394Z,15.48
2022-12-28T11:36:38.776Z,15.93
2022-12-28T11:39:25.383Z,16.43
2022-12-28T11:42:36.570Z,16.20
2022-12-28T11:44:49.786Z,15.90
2022-12-28T11:47:34.183Z,15.76
2022-12-28T11:50:28.531Z,15.64
2022-12-28T11:52:56.496Z,15.98
2022-12-28T11:55:56.824Z,16.47
2022-12-28T11:58:30.935Z,17.30
2022-12-28T12:01:00.315Z,18.31
2022-12-28T12:03:46.965Z,19.07
2022-12-28T12:06:14.915Z,19.77
2022-12-28T12:08:42.876Z,20.26
2022-12-28T12:11:21.612Z,20.41
2022-12-28T12:13:50.457Z,20.67
2022-12-28T12:16:27.477Z,21.08
2022-12-28T12:18:57.599Z,21.69
2022-12-28T12:21:37.052Z,22.18
2022-12-28T12:24:34.289Z,22.48
2022-12-28T12:27:13.938Z,22.80
2022-12-28T12:29:44.367Z,23.15
2022-12-28T12:32:18.182Z,23.42
2022-12-28T12:34:48.191Z,23.66
2022-12-28T12:37:16.157Z,23.96
2022-12-28T12:39:56.201Z,24.15
2022-12-28T12:42:27.095Z,24.04
2022-12-28T12:45:04.436Z,24.23
2022-12-28T12:47:44.520Z,24.34
2022-12-28T12:50:18.882Z,24.18
2022-12-28T12:52:53.266Z,23.37
2022-12-28T12:55:24.277Z,22.44
2022-12-28T12:57:58.899Z,22.07
2022-12-28T13:00:32.713Z,21.66
2022-12-28T13:03:00.732Z,21.42
2022-12-28T13:05:30.384Z,20.89
2022-12-28T13:07:59.703Z,21.02
2022-12-28T13:10:31.140Z,21.53
2022-12-28T13:13:00.552Z,21.66
2022-12-28T13:15:29.268Z,21.80
2022-12-28T13:20:59.679Z,21.78
2022-12-28T13:23:28.888Z,21.92
2022-12-28T13:25:58.492Z,22.12
2022-12-28T13:28:29.623Z,22.16
2022-12-28T13:30:59.267Z,22.09
2022-12-28T13:33:27.304Z,21.71
2022-12-28T13:36:04.999Z,20.65
2022-12-28T13:38:32.934Z,19.36
2022-12-28T13:41:03.288Z,18.19
2022-12-28T13:43:49.591Z,17.27
2022-12-28T13:46:19.442Z,16.21
2022-12-28T13:48:49.707Z,15.36
2022-12-28T13:51:19.756Z,14.80
2022-12-28T13:53:50.077Z,14.18
2022-12-28T13:56:20.118Z,13.57
2022-12-28T13:58:53.914Z,13.08
2022-12-28T14:01:24.463Z,12.48
2022-12-28T14:04:08.898Z,11.91
2022-12-28T14:06:47.312Z,11.22
2022-12-28T14:09:16.084Z,10.79
2022-12-28T14:11:45.714Z,10.41
2022-12-28T14:14:14.480Z,10.10
2022-12-28T14:16:43.399Z,9.78
2022-12-28T14:19:14.760Z,9.52
2022-12-28T14:21:45.297Z,9.27
2022-12-28T14:24:15.283Z,8.96
2022-12-28T14:26:51.127Z,8.72
2022-12-28T14:29:24.395Z,8.59
2022-12-28T14:31:55.563Z,8.51
2022-12-28T14:34:26.710Z,8.38
2022-12-28T14:36:55.392Z,8.10
2022-12-28T14:39:26.755Z,7.82
2022-12-28T14:41:55.706Z,7.59
2022-12-28T14:44:27.199Z,7.41
2022-12-28T14:46:56.132Z,7.21
2022-12-28T14:49:24.217Z,7.04
2022-12-28T14:51:52.427Z,6.88
2022-12-28T14:54:20.307Z,6.74
2022-12-28T14:56:52.142Z,6.61
2022-12-28T14:59:40.382Z,6.57
2022-12-28T15:02:28.961Z,6.54
2022-12-28T15:05:00.627Z,6.48
2022-12-28T15:07:31.243Z,6.35
2022-12-28T15:09:59.114Z,6.18
2022-12-28T15:12:27.179Z,6.07
2022-12-28T15:14:55.461Z,5.91
2022-12-28T15:17:25.635Z,5.70
2022-12-28T15:19:57.699Z,5.56
2022-12-28T15:22:25.818Z,5.43
2022-12-28T15:24:53.883Z,5.28
2022-12-28T15:27:21.748Z,5.11
2022-12-28T15:30:05.474Z,4.98
2022-12-28T15:32:34.589Z,4.84
2022-12-28T15:35:03.193Z,4.70
2022-12-28T15:37:31.177Z,4.57
2022-12-28T15:39:59.114Z,4.45
2022-12-28T15:42:27.279Z,4.34
2022-12-28T15:44:55.569Z,4.25
2022-12-28T15:47:24.262Z,4.17
2022-12-28T15:49:52.220Z,4.11
2022-12-28T15:52:20.127Z,4.03
2022-12-28T15:54:48.467Z,3.96
2022-12-28T15:57:16.580Z,3.90
2022-12-28T15:59:44.603Z,3.83
2022-12-28T16:02:13.127Z,3.80
2022-12-28T16:04:41.261Z,3.79
2022-12-28T16:07:09.431Z,3.76
2022-12-28T16:09:37.612Z,3.69
2022-12-28T16:12:05.622Z,3.58
2022-12-28T16:14:33.732Z,3.51
2022-12-28T16:17:01.724Z,3.44
2022-12-28T16:19:30.009Z,3.38
2022-12-28T16:21:58.074Z,3.33
2022-12-28T16:24:26.092Z,3.28
2022-12-28T16:26:53.897Z,3.23
2022-12-28T16:29:22.085Z,3.17
2022-12-28T16:31:52.599Z,3.11
2022-12-28T16:34:20.684Z,3.05
2022-12-28T16:36:48.753Z,3.01
2022-12-28T16:39:17.706Z,2.92
2022-12-28T16:41:45.715Z,2.80
2022-12-28T16:44:15.483Z,2.73
2022-12-28T16:46:43.795Z,2.69
2022-12-28T16:49:11.880Z,2.65
2022-12-28T16:51:41.088Z,2.60
2022-12-28T16:54:12.433Z,2.56
2022-12-28T16:56:40.394Z,2.51
2022-12-28T16:59:10.922Z,2.49
2022-12-28T17:01:38.941Z,2.46
2022-12-28T17:04:06.945Z,2.36
2022-12-28T17:06:34.895Z,2.25
2022-12-28T17:09:03.807Z,2.19
2022-12-28T17:11:31.797Z,2.12
2022-12-28T17:14:07.652Z,2.05
2022-12-28T17:16:35.983Z,2.03
2022-12-28T17:19:04.722Z,2.01
2022-12-28T17:21:33.325Z,2.01
2022-12-28T17:24:02.095Z,1.97
2022-12-28T17:26:30.353Z,1.93
2022-12-28T17:28:58.665Z,1.86
2022-12-28T17:31:26.667Z,1.80
2022-12-28T17:33:57.741Z,1.78
2022-12-28T17:36:25.820Z,1.71
2022-12-28T17:38:53.739Z,1.67
2022-12-28T17:41:22.990Z,1.66
2022-12-28T17:43:54.341Z,1.63
2022-12-28T17:46:23.270Z,1.60
2022-12-28T17:48:52.223Z,1.57
2022-12-28T17:51:20.206Z,1.51
2022-12-28T17:53:49.230Z,1.48
2022-12-28T17:56:17.483Z,1.44
2022-12-28T17:58:45.430Z,1.38
2022-12-28T18:01:13.794Z,1.36
2022-12-28T18:03:41.936Z,1.33
2022-12-28T18:06:09.964Z,1.32
2022-12-28T18:08:37.937Z,1.26
2022-12-28T18:11:08.770Z,1.23
2022-12-28T18:13:40.320Z,1.20
2022-12-28T18:16:10.851Z,1.13
2022-12-28T18:18:39.017Z,1.10
2022-12-28T18:21:08.832Z,1.07
2022-12-28T18:23:36.908Z,1.06
2022-12-28T18:26:10.134Z,1.01
2022-12-28T18:28:38.077Z,0.96
2022-12-28T18:31:06.783Z,0.92
2022-12-28T18:33:35.133Z,0.89
2022-12-28T18:36:04.438Z,0.84
2022-12-28T18:38:32.935Z,0.81
2022-12-28T18:41:01.395Z,0.81
2022-12-28T18:43:29.318Z,0.79
2022-12-28T18:45:58.612Z,0.76
2022-12-28T18:48:27.154Z,0.73
2022-12-28T18:50:56.347Z,0.68
2022-12-28T18:53:25.167Z,0.63
2022-12-28T18:55:59.947Z,0.57
2022-12-28T18:58:29.159Z,0.51
2022-12-28T19:01:03.172Z,0.47
2022-12-28T19:03:31.665Z,0.42
2022-12-28T19:06:02.945Z,0.35
2022-12-28T19:08:35.733Z,0.29
2022-12-28T19:11:04.271Z,0.24
2022-12-28T19:13:34.360Z,0.22
2022-12-28T19:16:06.285Z,0.20
2022-12-28T19:18:34.321Z,0.18
2022-12-28T19:21:16.274Z,0.15
2022-12-28T19:23:44.985Z,0.14
2022-12-28T19:26:12.869Z,0.12
2022-12-28T19:28:40.840Z,0.09
2022-12-28T19:31:09.050Z,0.08
2022-12-28T19:33:37.085Z,0.06
2022-12-28T19:36:05.265Z,0.06
2022-12-28T19:38:33.293Z,0.06
2022-12-28T19:41:09.104Z,0.01
2022-12-28T19:43:37.454Z,-0.04
2022-12-28T19:46:31.380Z,-0.07
2022-12-28T19:49:01.970Z,-0.10
2022-12-28T19:51:32.120Z,-0.12
2022-12-28T19:54:01.216Z,-0.16
2022-12-28T19:56:29.398Z,-0.21
2022-12-28T19:59:05.144Z,-0.25
2022-12-28T20:01:35.272Z,-0.28
2022-12-28T20:04:08.806Z,-0.31
2022-12-28T20:06:39.409Z,-0.36
2022-12-28T20:09:07.245Z,-0.38
2022-12-28T20:11:35.532Z,-0.40
2022-12-28T20:14:03.893Z,-0.41
2022-12-28T20:16:32.986Z,-0.39
2022-12-28T20:19:07.059Z,-0.37
2022-12-28T20:21:36.605Z,-0.37
2022-12-28T20:24:04.896Z,-0.37
2022-12-28T20:26:32.995Z,-0.40
2022-12-28T20:29:01.563Z,-0.43
2022-12-28T20:31:30.194Z,-0.44
2022-12-28T20:33:58.200Z,-0.44
2022-12-28T20:36:27.515Z,-0.47
2022-12-28T20:38:55.873Z,-0.51
2022-12-28T20:41:43.924Z,-0.55
2022-12-28T20:44:16.397Z,-0.60
2022-12-28T20:46:44.939Z,-0.65
2022-12-28T20:49:13.000Z,-0.69
2022-12-28T20:51:42.680Z,-0.75
2022-12-28T20:54:11.030Z,-0.78
2022-12-28T20:56:39.567Z,-0.80
2022-12-28T20:59:07.990Z,-0.84
2022-12-28T21:01:36.797Z,-0.87
2022-12-28T21:04:05.605Z,-0.91
2022-12-28T21:06:33.946Z,-0.97
2022-12-28T21:09:01.926Z,-1.02
2022-12-28T21:11:31.222Z,-1.06
2022-12-28T21:13:59.601Z,-1.07
2022-12-28T21:16:27.790Z,-1.06
2022-12-28T21:18:55.842Z,-1.06
2022-12-28T21:21:23.819Z,-1.07
2022-12-28T21:23:54.655Z,-1.08
2022-12-28T21:26:22.957Z,-1.08
2022-12-28T21:28:51.027Z,-1.07
2022-12-28T21:31:18.879Z,-1.07
2022-12-28T21:33:47.352Z,-1.07
2022-12-28T21:36:16.648Z,-1.10
2022-12-28T21:38:45.342Z,-1.11
2022-12-28T21:41:15.156Z,-1.13
2022-12-28T21:43:42.991Z,-1.15
2022-12-28T21:46:12.952Z,-1.20
2022-12-28T21:48:41.818Z,-1.24
2022-12-28T21:51:29.581Z,-1.27
2022-12-28T21:53:58.853Z,-1.35
2022-12-28T21:56:27.400Z,-1.44
2022-12-28T21:58:55.917Z,-1.51
2022-12-28T22:01:43.347Z,-1.54
2022-12-28T22:04:34.151Z,-1.58
2022-12-28T22:07:02.777Z,-1.60
2022-12-28T22:09:49.449Z,-1.64
2022-12-28T22:12:36.010Z,-1.70
2022-12-28T22:15:23.066Z,-1.78
2022-12-28T22:17:52.775Z,-1.83
2022-12-28T22:20:21.156Z,-1.87
2022-12-28T22:22:49.000Z,-1.89
2022-12-28T22:25:17.196Z,-1.90
2022-12-28T22:27:45.084Z,-1.91
2022-12-28T22:30:13.338Z,-1.91
2022-12-28T22:32:41.614Z,-1.90
2022-12-28T22:35:10.233Z,-1.91
2022-12-28T22:37:38.167Z,-1.94
2022-12-28T22:40:06.373Z,-1.94
2022-12-28T22:42:34.414Z,-1.95
2022-12-28T22:45:02.911Z,-1.94
2022-12-28T22:47:30.873Z,-1.93
2022-12-28T22:49:58.846Z,-1.94
2022-12-28T22:52:27.120Z,-1.95
2022-12-28T22:54:55.085Z,-1.97
2022-12-28T22:57:23.457Z,-1.97
2022-12-28T22:59:51.437Z,-2.01
2022-12-28T23:02:19.740Z,-2.06
2022-12-28T23:04:47.882Z,-2.10
2022-12-28T23:07:15.951Z,-2.14
2022-12-28T23:09:43.817Z,-2.16
2022-12-28T23:12:11.687Z,-2.19
2022-12-28T23:14:58.321Z,-2.21
2022-12-28T23:17:26.890Z,-2.22
2022-12-28T23:20:13.388Z,-2.22
2022-12-28T23:22:59.784Z,-2.26
2022-12-28T23:25:47.926Z,-2.29
2022-12-28T23:28:16.723Z,-2.31
2022-12-28T23:30:46.263Z,-2.30
2022-12-28T23:33:14.901Z,-2.31
2022-12-28T23:35:42.827Z,-2.31
2022-12-28T23:38:10.942Z,-2.31
2022-12-28T23:40:40.036Z,-2.30
2022-12-28T23:43:08.318Z,-2.30
2022-12-28T23:45:36.599Z,-2.30
2022-12-28T23:48:04.892Z,-2.29
2022-12-28T23:50:32.847Z,-2.31
2022-12-28T23:53:00.761Z,-2.33
2022-12-28T23:55:28.879Z,-2.35
2022-12-28T23:57:56.849Z,-2.36
